Time;durP1;ratioP1;P1;durP2;ratioP2;P2;SDS_P1;SDS_P2;PMS_P1;PMS_P2;Temp;Humidity;BMP_temperature;BMP_pressure;BME280_temperature;BME280_humidity;BME280_pressure;Samples;Min_cycle;Max_cycle;Signal;HPM_P1;HPM_P2
2023/01/13 00:00:43;;;;;;;9.27;2.63;;;;;;;8.44;100.00;100297.47;4849916;29;20067;-87
2023/01/13 00:03:09;;;;;;;14.33;3.00;;;;;;;8.47;100.00;100292.72;4848188;29;21055;-87
2023/01/13 00:05:35;;;;;;;16.03;4.10;;;;;;;8.43;100.00;100294.97;4843714;29;20025;-86
2023/01/13 00:08:03;;;;;;;15.40;3.63;;;;;;;8.38;100.00;100284.81;4850377;29;20045;-87
2023/01/13 00:10:29;;;;;;;14.70;3.37;;;;;;;8.38;100.00;100286.69;4859745;29;21003;-86
2023/01/13 00:12:54;;;;;;;21.57;3.90;;;;;;;8.32;100.00;100282.94;4844948;29;20032;-87
2023/01/13 00:15:20;;;;;;;18.60;3.87;;;;;;;8.30;100.00;100285.03;4864587;29;20040;-87
2023/01/13 00:17:47;;;;;;;14.00;3.50;;;;;;;8.26;100.00;100279.22;4864162;29;20037;-86
2023/01/13 00:20:12;;;;;;;18.03;4.03;;;;;;;8.34;100.00;100275.47;4848122;29;20053;-86
2023/01/13 00:22:38;;;;;;;17.10;3.90;;;;;;;8.33;100.00;100264.91;4836634;29;20065;-87
2023/01/13 00:25:05;;;;;;;15.70;3.90;;;;;;;8.25;100.00;100265.94;4837231;29;20041;-86
2023/01/13 00:27:30;;;;;;;18.17;3.77;;;;;;;8.18;100.00;100249.75;4865927;29;20465;-86
2023/01/13 00:29:56;;;;;;;22.27;4.80;;;;;;;8.15;100.00;100247.50;4867756;29;20060;-87
2023/01/13 00:32:21;;;;;;;17.33;4.23;;;;;;;8.11;100.00;100259.75;4835927;29;20045;-86
2023/01/13 00:34:47;;;;;;;16.97;3.93;;;;;;;8.11;100.00;100246.25;4854337;29;20041;-86
2023/01/13 00:37:13;;;;;;;23.17;4.37;;;;;;;8.07;100.00;100253.13;4847974;29;20053;-87
2023/01/13 00:39:40;;;;;;;19.13;4.27;;;;;;;8.02;100.00;100261.00;4847963;29;20053;-86
2023/01/13 00:44:50;;;;;;;16.75;3.72;;;;;;;7.98;100.00;100233.59;4863672;29;20048;-86
2023/01/13 00:47:16;;;;;;;21.67;4.10;;;;;;;8.01;100.00;100230.50;4852320;29;20033;-86
2023/01/13 00:49:41;;;;;;;18.33;4.10;;;;;;;8.02;100.00;100237.53;4866166;29;20041;-87
2023/01/13 00:52:07;;;;;;;19.03;4.33;;;;;;;8.03;100.00;100239.19;4841953;29;20041;-86
2023/01/13 00:54:32;;;;;;;20.83;4.50;;;;;;;7.93;100.00;100252.31;4852535;29;20041;-86
2023/01/13 00:56:58;;;;;;;22.53;4.60;;;;;;;7.88;100.00;100250.22;4821999;29;20057;-86
2023/01/13 00:59:23;;;;;;;20.80;4.53;;;;;;;7.96;100.00;100243.78;4820080;29;20375;-86
2023/01/13 01:01:49;;;;;;;19.63;4.33;;;;;;;7.90;100.00;100250.00;4855331;29;20122;-86
2023/01/13 01:04:14;;;;;;;20.40;4.23;;;;;;;7.85;100.00;100247.94;4843205;29;20129;-87
2023/01/13 01:06:39;;;;;;;18.90;4.50;;;;;;;7.82;100.00;100251.06;4866375;29;20040;-86
2023/01/13 01:09:05;;;;;;;21.67;4.43;;;;;;;7.86;100.00;100260.41;4865699;29;20034;-86
2023/01/13 01:11:31;;;;;;;22.07;4.53;;;;;;;7.76;100.00;100255.44;4868997;29;20044;-86
2023/01/13 01:14:00;;;;;;;22.50;4.67;;;;;;;7.83;100.00;100247.31;4866706;29;20032;-86
2023/01/13 01:16:27;;;;;;;22.63;4.40;;;;;;;7.86;100.00;100262.25;4860846;29;20041;-86
2023/01/13 01:18:53;;;;;;;23.70;4.63;;;;;;;7.77;100.00;100256.25;4848031;29;20049;-86
2023/01/13 01:21:21;;;;;;;21.30;4.97;;;;;;;7.74;100.00;100270.16;4847240;29;20034;-86
2023/01/13 01:23:46;;;;;;;21.87;4.30;;;;;;;7.73;100.00;100250.44;4851807;29;20473;-86
2023/01/13 01:26:21;;;;;;;23.23;4.63;;;;;;;7.75;100.00;100271.78;4850567;29;20044;-86
2023/01/13 01:28:47;;;;;;;20.00;4.30;;;;;;;7.80;100.00;100266.59;4860657;29;20037;-86
2023/01/13 01:31:18;;;;;;;19.13;4.23;;;;;;;7.82;100.00;100267.25;4853069;29;20033;-87
2023/01/13 01:33:46;;;;;;;24.10;4.93;;;;;;;7.87;100.00;100250.44;4847670;29;20036;-86
2023/01/13 01:36:13;;;;;;;26.63;5.30;;;;;;;7.83;100.00;100251.88;4859432;29;20029;-86
2023/01/13 01:38:38;;;;;;;21.97;4.30;;;;;;;7.81;100.00;100253.97;4833202;29;20081;-90
2023/01/13 01:41:04;;;;;;;20.03;4.00;;;;;;;7.81;100.00;100246.69;4820801;29;20068;-91
2023/01/13 01:44:18;;;;;;;22.17;4.47;;;;;;;8.01;100.00;100256.63;4845949;29;20037;-89
2023/01/13 01:46:43;;;;;;;25.10;5.13;;;;;;;7.90;100.00;100261.66;4823944;29;20254;-90
2023/01/13 01:49:30;;;;;;;20.37;4.27;;;;;;;7.89;100.00;100267.25;4864121;29;20033;-90
2023/01/13 01:52:01;;;;;;;19.27;4.43;;;;;;;7.84;100.00;100251.66;4850838;29;20036;-91
2023/01/13 01:54:38;;;;;;;21.27;4.63;;;;;;;7.80;100.00;100242.34;4846643;29;20422;-90
2023/01/13 01:57:06;;;;;;;22.50;4.90;;;;;;;7.83;100.00;100254.56;4848301;29;20048;-90
2023/01/13 01:59:34;;;;;;;22.93;4.67;;;;;;;7.82;100.00;100255.63;4834221;29;20102;-90
2023/01/13 02:01:59;;;;;;;23.90;4.77;;;;;;;7.74;100.00;100245.88;4850042;29;20093;-91
2023/01/13 02:04:30;;;;;;;25.63;5.60;;;;;;;7.71;100.00;100246.28;4847338;29;20026;-89
2023/01/13 02:06:56;;;;;;;25.43;5.90;;;;;;;7.72;100.00;100247.94;4851884;29;20943;-91
2023/01/13 02:09:24;;;;;;;21.60;4.70;;;;;;;7.67;100.00;100253.97;4855434;29;20060;-91
2023/01/13 02:14:34;;;;;;;23.30;5.27;;;;;;;7.67;100.00;100248.59;4864878;29;20048;-91
2023/01/13 02:17:15;;;;;;;22.93;4.70;;;;;;;7.65;100.00;100247.13;4848493;29;20351;-91
2023/01/13 02:20:23;;;;;;;24.07;5.13;;;;;;;7.69;100.00;100251.06;4848933;29;20057;-90
2023/01/13 02:23:07;;;;;;;28.17;5.43;;;;;;;7.65;100.00;100233.66;4845274;29;20049;-91
2023/01/13 02:25:51;;;;;;;25.70;5.40;;;;;;;7.57;100.00;100243.56;4850232;29;20122;-90
2023/01/13 02:28:22;;;;;;;29.10;6.45;;;;;;;7.52;100.00;100239.84;4844483;29;20120;-89
2023/01/13 02:34:13;;;;;;;25.83;5.83;;;;;;;7.55;100.00;100251.06;4859390;29;20884;-89
2023/01/13 02:36:48;;;;;;;27.27;6.10;;;;;;;7.46;100.00;100254.97;4867414;29;20092;-91
2023/01/13 02:39:25;;;;;;;27.30;5.40;;;;;;;7.41;100.00;100254.75;4861686;29;20046;-91
2023/01/13 02:45:01;;;;;;;26.15;5.45;;;;;;;7.49;100.00;100256.44;4864941;29;20044;-86
2023/01/13 02:47:31;;;;;;;25.03;5.13;;;;;;;7.37;100.00;100238.19;4861802;29;20500;-85
2023/01/13 02:50:04;;;;;;;24.87;5.43;;;;;;;7.40;100.00;100236.94;4848483;29;20078;-86
2023/01/13 02:52:56;;;;;;;23.73;5.97;;;;;;;7.43;100.00;100228.44;4847348;29;20033;-85
2023/01/13 02:55:47;;;;;;;24.97;5.87;;;;;;;7.39;100.00;100224.50;4851488;29;20497;-85
2023/01/13 02:58:16;;;;;;;25.70;5.83;;;;;;;7.43;100.00;100225.75;4854565;29;21007;-86
2023/01/13 03:00:43;;;;;;;24.00;5.57;;;;;;;7.40;100.00;100226.16;4865787;29;20654;-85
2023/01/13 03:03:09;;;;;;;27.17;5.60;;;;;;;7.55;100.00;100236.75;4842841;29;20037;-86
2023/01/13 03:05:35;;;;;;;26.70;5.47;;;;;;;7.46;100.00;100225.34;4850182;29;20451;-86
2023/01/13 03:08:38;;;;;;;27.90;5.60;;;;;;;7.48;100.00;100228.66;4817960;29;20034;-85
2023/01/13 03:11:07;;;;;;;27.77;5.97;;;;;;;7.42;100.00;100230.31;4842856;29;20033;-86
2023/01/13 03:13:41;;;;;;;26.33;5.00;;;;;;;7.56;100.00;100230.31;4841745;29;20033;-86
2023/01/13 03:16:27;;;;;;;;;;;;;;;7.71;100.00;100219.31;4840177;29;20068;-85
2023/01/13 03:19:05;;;;;;;27.53;5.67;;;;;;;7.57;100.00;100205.84;4844353;29;19920;-86
2023/01/13 03:21:42;;;;;;;25.37;5.23;;;;;;;7.56;100.00;100203.34;4842273;29;20564;-85
2023/01/13 03:24:16;;;;;;;25.07;5.27;;;;;;;7.55;100.00;100196.31;4858464;29;20485;-86
2023/01/13 03:26:47;;;;;;;25.38;5.72;;;;;;;7.59;100.00;100194.88;4844034;29;20029;-90
2023/01/13 03:29:21;;;;;;;22.53;4.90;;;;;;;7.59;100.00;100192.16;4846005;29;20074;-91
2023/01/13 03:31:56;;;;;;;20.48;4.50;;;;;;;7.68;100.00;100195.47;4850226;29;20053;-91
2023/01/13 03:34:27;;;;;;;20.83;4.30;;;;;;;7.69;100.00;100175.56;4863738;29;20029;-89
2023/01/13 03:36:56;;;;;;;25.27;5.17;;;;;;;7.71;100.00;100193.19;4835151;29;20052;-89
2023/01/13 03:39:30;;;;;;;21.40;4.50;;;;;;;7.75;100.00;100185.50;4836649;29;20124;-90
2023/01/13 03:42:01;;;;;;;18.48;4.57;;;;;;;7.80;100.00;100183.00;4858882;29;20546;-90
2023/01/13 03:44:32;;;;;;;21.37;4.27;;;;;;;7.81;100.00;100190.06;4847542;29;20025;-90
2023/01/13 03:47:06;;;;;;;20.60;4.13;;;;;;;7.85;98.87;100175.13;4855405;29;20040;-89
2023/01/13 03:49:41;;;;;;;18.65;3.97;;;;;;;7.86;97.77;100192.97;4843621;29;20523;-90
2023/01/13 03:52:11;;;;;;;16.43;3.30;;;;;;;7.91;95.55;100184.22;4838580;29;20083;-89
2023/01/13 03:54:47;;;;;;;12.93;3.47;;;;;;;7.91;93.55;100185.09;4846342;29;21031;-89
2023/01/13 03:57:16;;;;;;;12.67;3.30;;;;;;;7.87;92.92;100183.00;4843499;29;20033;-90
2023/01/13 03:59:46;;;;;;;11.10;2.50;;;;;;;7.94;91.08;100195.44;4846044;29;20026;-91
2023/01/13 04:02:28;;;;;;;9.87;2.40;;;;;;;7.97;90.78;100193.34;4860222;29;20501;-90
2023/01/13 04:05:01;;;;;;;8.40;2.03;;;;;;;7.97;90.64;100198.75;4845638;29;20048;-91
2023/01/13 04:07:46;;;;;;;9.53;2.07;;;;;;;7.96;90.36;100187.13;4836945;29;20024;-85
2023/01/13 04:10:15;;;;;;;9.45;2.55;;;;;;;7.98;89.25;100216.59;4836224;29;20285;-85
2023/01/13 04:13:01;;;;;;;9.07;2.07;;;;;;;7.91;90.81;100220.16;4837162;29;20037;-90
2023/01/13 04:15:43;;;;;;;8.50;2.10;;;;;;;7.89;90.21;100246.50;4843632;29;20241;-89
2023/01/13 04:18:19;;;;;;;7.73;2.00;;;;;;;7.84;91.08;100222.00;4839645;29;20037;-90
2023/01/13 04:20:46;;;;;;;5.93;1.73;;;;;;;7.76;92.22;100220.38;4839603;29;20029;-91
2023/01/13 04:23:12;;;;;;;5.87;1.67;;;;;;;7.80;91.54;100231.56;4830604;29;20044;-90
2023/01/13 04:25:38;;;;;;;6.80;2.07;;;;;;;7.70;92.98;100223.88;4844935;29;20502;-90
2023/01/13 04:28:04;;;;;;;6.73;1.77;;;;;;;7.69;92.59;100241.09;4841773;29;20045;-89
2023/01/13 04:30:30;;;;;;;8.93;2.00;;;;;;;7.75;92.52;100242.13;4855834;29;20029;-91
2023/01/13 04:32:55;;;;;;;8.83;2.03;;;;;;;7.61;93.97;100227.81;4823744;29;20064;-91
2023/01/13 04:35:20;;;;;;;6.20;1.73;;;;;;;7.60;94.69;100248.56;4822790;29;20494;-90
2023/01/13 04:37:46;;;;;;;6.83;2.07;;;;;;;7.53;96.21;100226.16;4848492;29;20092;-90
2023/01/13 04:40:11;;;;;;;8.77;2.23;;;;;;;7.52;97.83;100231.75;4846441;29;20034;-90
2023/01/13 04:42:37;;;;;;;13.03;2.73;;;;;;;7.57;98.41;100230.09;4828147;29;20037;-89
2023/01/13 04:45:02;;;;;;;9.70;2.20;;;;;;;7.43;100.00;100241.94;4819002;29;20030;-90
2023/01/13 04:47:28;;;;;;;7.17;2.20;;;;;;;7.46;100.00;100230.72;4833286;29;20578;-89
2023/01/13 04:49:53;;;;;;;11.47;2.90;;;;;;;7.43;100.00;100217.66;4845350;29;20434;-88
2023/01/13 04:52:18;;;;;;;11.47;2.67;;;;;;;7.38;100.00;100228.22;4807916;29;20061;-90
2023/01/13 04:54:44;;;;;;;11.80;2.53;;;;;;;7.28;100.00;100217.84;4828370;29;20044;-90
2023/01/13 04:57:09;;;;;;;11.57;2.70;;;;;;;7.31;100.00;100208.53;4815897;29;20041;-90
2023/01/13 04:59:34;;;;;;;14.00;3.10;;;;;;;7.21;100.00;100199.00;4802924;29;20120;-89
2023/01/13 05:02:00;;;;;;;15.03;3.50;;;;;;;7.17;100.00;100203.13;4816313;29;20050;-90
2023/01/13 05:04:25;;;;;;;14.40;3.80;;;;;;;7.19;100.00;100202.91;4849259;29;20044;-89
2023/01/13 05:06:51;;;;;;;14.80;3.43;;;;;;;7.15;100.00;100213.25;4845087;29;20507;-90
2023/01/13 05:09:16;;;;;;;12.23;2.93;;;;;;;7.14;100.00;100198.16;4833658;29;21720;-89
2023/01/13 05:17:16;;;;;;;16.50;3.70;;;;;;;7.07;100.00;100200.00;4848985;29;20076;-89
2023/01/13 05:19:41;;;;;;;15.33;4.17;;;;;;;7.00;100.00;100193.78;4854985;29;21982;-90
2023/01/13 05:27:35;;;;;;;17.27;3.47;;;;;;;7.08;100.00;100215.13;4859975;29;20296;-89
2023/01/13 05:30:01;;;;;;;16.13;3.33;;;;;;;7.00;100.00;100216.13;4831862;29;20438;-90
2023/01/13 05:32:26;;;;;;;19.63;4.23;;;;;;;7.00;100.00;100218.00;4818355;29;20041;-89
2023/01/13 05:34:53;;;;;;;13.80;3.40;;;;;;;6.96;100.00;100208.69;4868066;29;20042;-90
2023/01/13 05:37:18;;;;;;;16.37;3.23;;;;;;;6.98;100.00;100212.00;4855264;29;20056;-90
2023/01/13 05:45:11;;;;;;;16.48;3.90;;;;;;;6.95;100.00;100232.09;4848996;29;20044;-89
2023/01/13 05:47:37;;;;;;;17.23;3.63;;;;;;;6.99;100.00;100245.97;4821689;29;20936;-90
2023/01/13 05:50:04;;;;;;;15.33;3.57;;;;;;;6.83;100.00;100234.53;4843667;29;20116;-90
2023/01/13 05:52:29;;;;;;;16.67;3.43;;;;;;;6.91;100.00;100249.69;4834118;29;20025;-89
2023/01/13 05:54:54;;;;;;;15.27;4.03;;;;;;;6.87;100.00;100251.13;4866046;29;20505;-91
2023/01/13 05:57:20;;;;;;;18.20;4.03;;;;;;;6.83;100.00;100255.28;4843486;29;20052;-90
2023/01/13 05:59:45;;;;;;;16.40;3.93;;;;;;;6.83;100.00;100257.97;4850697;29;20029;-90
2023/01/13 06:02:11;;;;;;;14.40;3.67;;;;;;;6.79;100.00;100257.53;4838578;29;20061;-90
2023/01/13 06:04:36;;;;;;;20.47;3.97;;;;;;;6.81;100.00;100260.00;4834719;29;20057;-90
2023/01/13 06:07:01;;;;;;;18.57;3.60;;;;;;;6.79;100.00;100252.13;4821245;29;20102;-90
2023/01/13 06:09:27;;;;;;;18.77;4.23;;;;;;;6.82;100.00;100251.72;4845134;29;21030;-88
2023/01/13 06:11:52;;;;;;;16.10;3.97;;;;;;;6.79;100.00;100265.59;4833832;29;20033;-90
2023/01/13 06:14:17;;;;;;;15.73;3.43;;;;;;;6.80;100.00;100269.09;4853107;29;20036;-90
2023/01/13 06:16:44;;;;;;;16.40;3.97;;;;;;;6.74;100.00;100258.09;4835213;29;20454;-90
2023/01/13 06:19:12;;;;;;;17.57;3.87;;;;;;;6.81;100.00;100263.53;4861423;29;20112;-90
2023/01/13 06:21:40;;;;;;;16.07;4.03;;;;;;;6.74;100.00;100270.75;4846807;29;20120;-91
2023/01/13 06:24:07;;;;;;;15.40;3.43;;;;;;;6.78;100.00;100272.00;4867155;29;20443;-90
2023/01/13 06:26:37;;;;;;;18.83;4.23;;;;;;;6.69;100.00;100251.66;4851162;29;20053;-89
2023/01/13 06:29:03;;;;;;;20.67;4.13;;;;;;;6.68;100.00;100274.25;4857721;29;20045;-90
2023/01/13 06:31:29;;;;;;;17.77;3.30;;;;;;;6.74;100.00;100260.81;4820537;29;20062;-89
2023/01/13 06:34:01;;;;;;;17.10;3.70;;;;;;;6.76;100.00;100255.25;4841962;29;20029;-89
2023/01/13 06:36:37;;;;;;;15.37;3.50;;;;;;;6.74;100.00;100270.75;4860243;29;20033;-90
2023/01/13 06:39:03;;;;;;;14.80;3.63;;;;;;;6.73;100.00;100272.63;4843238;29;20124;-89
2023/01/13 06:44:18;;;;;;;18.53;3.90;;;;;;;6.78;100.00;100285.47;4865063;29;20040;-89
2023/01/13 06:46:44;;;;;;;16.60;4.10;;;;;;;6.79;100.00;100295.22;4861098;29;20033;-91
2023/01/13 06:49:09;;;;;;;18.40;4.27;;;;;;;6.82;100.00;100273.25;4845470;29;20026;-91
2023/01/13 06:51:34;;;;;;;16.77;3.60;;;;;;;6.85;100.00;100272.03;4853945;29;21086;-89
2023/01/13 06:54:00;;;;;;;18.97;3.90;;;;;;;6.85;100.00;100270.16;4823423;29;20078;-89
2023/01/13 06:56:25;;;;;;;17.00;3.50;;;;;;;6.80;100.00;100267.25;4847868;29;20033;-90
2023/01/13 06:58:51;;;;;;;16.60;3.90;;;;;;;6.88;100.00;100264.41;4864405;29;20038;-89
2023/01/13 07:01:16;;;;;;;17.30;3.60;;;;;;;6.87;100.00;100257.34;4833542;29;20496;-89
2023/01/13 07:03:41;;;;;;;17.80;3.43;;;;;;;6.81;100.00;100276.16;4829030;29;20041;-89
2023/01/13 07:06:07;;;;;;;17.13;3.30;;;;;;;6.78;100.00;100277.41;4812015;29;20125;-89
2023/01/13 07:08:32;;;;;;;20.47;4.00;;;;;;;6.89;100.00;100281.38;4833387;29;20025;-89
2023/01/13 07:11:00;;;;;;;19.43;4.27;;;;;;;6.85;100.00;100272.84;4837452;29;20116;-89
2023/01/13 07:16:09;;;;;;;17.23;3.97;;;;;;;6.95;100.00;100277.03;4862862;29;20253;-90
2023/01/13 07:18:35;;;;;;;16.87;3.97;;;;;;;6.98;99.63;100277.47;4823413;29;20127;-90
2023/01/13 07:21:08;;;;;;;17.13;3.87;;;;;;;6.96;99.80;100289.47;4862545;29;20029;-90
2023/01/13 07:23:39;;;;;;;17.70;4.13;;;;;;;6.96;99.20;100286.78;4844860;29;20165;-90
2023/01/13 07:26:08;;;;;;;20.60;4.50;;;;;;;6.99;98.79;100294.47;4858124;29;20032;-90
2023/01/13 07:28:34;;;;;;;16.40;3.77;;;;;;;6.95;98.80;100282.44;4813557;29;20042;-90
2023/01/13 07:31:00;;;;;;;21.87;4.10;;;;;;;6.88;99.10;100291.31;4850833;29;20072;-90
2023/01/13 07:33:25;;;;;;;20.20;4.30;;;;;;;6.85;99.38;100272.03;4811047;29;20468;-90
2023/01/13 07:35:56;;;;;;;21.50;4.00;;;;;;;6.80;99.66;100286.13;4849932;29;20017;-91
2023/01/13 07:38:21;;;;;;;17.97;4.10;;;;;;;6.84;98.84;100295.47;4846895;29;20434;-90
2023/01/13 07:40:47;;;;;;;19.53;4.27;;;;;;;6.84;98.77;100286.53;4820704;29;20025;-89
2023/01/13 07:43:30;;;;;;;19.33;4.27;;;;;;;6.86;98.56;100290.69;4839752;29;20033;-90
2023/01/13 07:46:01;;;;;;;20.20;4.13;;;;;;;6.80;98.41;100296.88;4848009;29;20060;-90
2023/01/13 07:48:27;;;;;;;22.97;4.30;;;;;;;6.83;97.89;100301.88;4858620;29;20103;-91
2023/01/13 07:50:53;;;;;;;17.73;3.20;;;;;;;6.88;97.45;100287.78;4842184;29;20441;-89
2023/01/13 07:53:21;;;;;;;22.67;3.70;;;;;;;6.86;97.46;100301.44;4816955;29;20108;-90
2023/01/13 07:55:46;;;;;;;18.40;4.00;;;;;;;6.85;97.27;100315.94;4846305;29;20038;-89
2023/01/13 07:58:12;;;;;;;17.67;3.80;;;;;;;6.99;95.76;100310.63;4832580;29;20040;-90
2023/01/13 08:00:37;;;;;;;19.30;3.97;;;;;;;6.88;96.60;100296.72;4849039;29;20029;-90
2023/01/13 08:03:03;;;;;;;22.57;5.23;;;;;;;6.74;97.86;100308.44;4820357;29;20051;-91
2023/01/13 08:05:29;;;;;;;15.53;3.53;;;;;;;6.84;96.80;100303.53;4851629;29;20029;-90
2023/01/13 08:07:54;;;;;;;19.33;4.20;;;;;;;6.95;96.13;100307.50;4863833;29;20037;-90
2023/01/13 08:10:20;;;;;;;17.57;3.87;;;;;;;6.93;96.41;100310.41;4821097;29;20025;-89
2023/01/13 08:15:31;;;;;;;21.98;4.20;;;;;;;6.95;96.45;100325.53;4839516;29;20125;-90
2023/01/13 08:17:58;;;;;;;17.50;3.60;;;;;;;6.98;96.36;100319.75;4851997;29;20036;-89
2023/01/13 08:20:24;;;;;;;21.03;4.43;;;;;;;7.00;96.36;100323.88;4850746;29;20088;-90
2023/01/13 08:22:49;;;;;;;19.23;4.33;;;;;;;7.02;96.50;100324.53;4830738;29;20467;-89
2023/01/13 08:25:14;;;;;;;15.80;3.73;;;;;;;7.07;95.76;100327.44;4835585;29;20109;-90
2023/01/13 08:27:40;;;;;;;20.63;4.40;;;;;;;7.16;95.40;100328.09;4835178;29;20061;-89
2023/01/13 08:30:06;;;;;;;15.33;3.90;;;;;;;7.14;95.95;100322.09;4818838;29;20039;-90
2023/01/13 08:32:31;;;;;;;21.20;4.30;;;;;;;7.18;95.74;100339.50;4850564;29;20053;-90
2023/01/13 08:34:57;;;;;;;22.77;4.60;;;;;;;7.24;95.26;100346.78;4845046;29;20049;-90
2023/01/13 08:37:22;;;;;;;19.50;4.23;;;;;;;7.25;96.11;100345.75;4862022;29;20462;-90
2023/01/13 08:39:48;;;;;;;19.20;4.27;;;;;;;7.28;95.41;100346.38;4837456;29;20030;-90
2023/01/13 08:42:13;;;;;;;18.57;4.10;;;;;;;7.36;95.66;100348.91;4852548;29;20056;-90
2023/01/13 08:44:38;;;;;;;21.40;4.33;;;;;;;7.45;95.58;100361.13;4822708;29;20045;-91
2023/01/13 08:47:04;;;;;;;22.60;4.57;;;;;;;7.38;96.17;100344.94;4835719;29;20041;-90
2023/01/13 08:49:30;;;;;;;22.87;4.83;;;;;;;7.50;95.57;100355.97;4841888;29;20025;-91
2023/01/13 08:51:55;;;;;;;19.43;4.33;;;;;;;7.56;94.80;100341.69;4817155;29;20080;-91
2023/01/13 08:54:20;;;;;;;18.63;3.70;;;;;;;7.64;95.13;100356.81;4842582;29;20057;-91
2023/01/13 08:56:46;;;;;;;23.83;4.30;;;;;;;7.66;95.46;100354.78;4831063;29;20034;-90
2023/01/13 08:59:13;;;;;;;19.40;4.63;;;;;;;7.70;95.49;100347.13;4844400;29;20034;-91
2023/01/13 09:01:39;;;;;;;19.00;4.30;;;;;;;7.72;94.05;100345.84;4846043;29;20390;-89
2023/01/13 09:04:06;;;;;;;23.80;4.40;;;;;;;7.73;93.81;100354.78;4843115;29;20026;-92
2023/01/13 09:06:31;;;;;;;22.07;4.83;;;;;;;7.72;94.68;100363.91;4848039;29;20025;-90
2023/01/13 09:08:58;;;;;;;23.03;4.50;;;;;;;7.76;94.58;100363.31;4838993;29;20486;-91
2023/01/13 09:14:21;;;;;;;20.93;4.83;;;;;;;8.05;93.90;100357.69;4866164;29;20103;-90
2023/01/13 09:16:47;;;;;;;22.57;5.23;;;;;;;8.03;92.22;100360.59;4866667;29;20033;-90
2023/01/13 09:19:12;;;;;;;21.93;4.83;;;;;;;8.07;93.38;100352.94;4812797;29;21878;-90
2023/01/13 09:21:38;;;;;;;23.20;4.50;;;;;;;8.09;93.55;100357.09;4863097;29;20030;-90
2023/01/13 09:24:04;;;;;;;21.80;4.60;;;;;;;8.00;94.28;100360.22;4830636;29;20061;-90
2023/01/13 09:26:29;;;;;;;20.07;4.73;;;;;;;7.99;93.32;100370.16;4820238;29;20021;-91
2023/01/13 09:28:54;;;;;;;19.03;4.50;;;;;;;8.02;93.85;100367.03;4829052;29;21843;-89
2023/01/13 09:31:20;;;;;;;18.77;4.10;;;;;;;8.05;93.14;100381.97;4854522;29;20029;-91
2023/01/13 09:36:29;;;;;;;22.57;4.80;;;;;;;7.87;94.30;100383.41;4869092;29;20040;-90
2023/01/13 09:38:54;;;;;;;25.50;4.80;;;;;;;7.86;95.51;100392.56;4834467;29;20050;-90
2023/01/13 09:44:12;;;;;;;23.50;4.97;;;;;;;7.75;96.35;100394.00;4859476;29;20557;-90
2023/01/13 09:46:46;;;;;;;21.70;5.33;;;;;;;7.80;94.85;100398.75;4837357;29;20021;-91
2023/01/13 09:49:22;;;;;;;20.88;4.35;;;;;;;7.77;95.08;100413.50;4865364;29;20063;-91
2023/01/13 09:52:01;;;;;;;23.83;4.83;;;;;;;7.81;94.94;100418.50;4852345;29;20026;-92
2023/01/13 09:54:38;;;;;;;22.43;4.97;;;;;;;7.71;96.04;100392.75;4855157;29;20026;-90
2023/01/13 09:57:15;;;;;;;23.87;5.10;;;;;;;7.72;95.77;100418.66;4850299;29;20037;-90
2023/01/13 09:59:41;;;;;;;21.80;5.20;;;;;;;7.64;96.84;100429.63;4848922;29;21742;-90
2023/01/13 10:02:44;;;;;;;20.43;4.53;;;;;;;7.70;98.30;100438.78;4822463;29;20037;-89
2023/01/13 10:05:12;;;;;;;21.03;4.80;;;;;;;7.48;100.00;100421.91;4868041;29;20130;-91
2023/01/13 10:07:45;;;;;;;24.73;5.27;;;;;;;7.35;100.00;100428.09;4850104;29;20041;-90
2023/01/13 10:10:17;;;;;;;25.33;5.27;;;;;;;7.33;100.00;100430.13;4849791;29;20177;-91
2023/01/13 10:15:30;;;;;;;22.03;5.30;;;;;;;7.38;100.00;100431.19;4860531;29;20422;-90
2023/01/13 10:18:08;;;;;;;24.63;5.43;;;;;;;7.37;100.00;100426.00;4844563;29;20045;-90
2023/01/13 10:21:04;;;;;;;27.17;5.87;;;;;;;7.35;100.00;100445.06;4843789;29;20883;-91
2023/01/13 10:23:41;;;;;;;24.27;5.90;;;;;;;7.29;100.00;100445.03;4862702;29;20053;-90
2023/01/13 10:26:27;;;;;;;20.93;5.03;;;;;;;7.17;100.00;100440.22;4842280;29;20033;-90
2023/01/13 10:28:54;;;;;;;26.73;5.63;;;;;;;7.08;100.00;100449.50;4847805;29;20140;-90
2023/01/13 10:31:21;;;;;;;24.17;5.07;;;;;;;7.03;100.00;100458.19;4852952;29;20116;-84
2023/01/13 10:33:46;;;;;;;23.30;5.20;;;;;;;6.99;100.00;100459.63;4837946;29;20037;-84
2023/01/13 10:36:20;;;;;;;25.23;5.60;;;;;;;6.99;100.00;100454.22;4829502;29;20045;-84
2023/01/13 10:38:47;;;;;;;25.20;5.77;;;;;;;6.97;100.00;100463.53;4861995;29;20587;-84
2023/01/13 10:41:16;;;;;;;22.33;5.17;;;;;;;6.96;100.00;100462.69;4835539;29;20026;-84
2023/01/13 10:44:13;;;;;;;23.90;5.37;;;;;;;6.95;100.00;100465.56;4844323;29;20516;-84
2023/01/13 10:46:54;;;;;;;27.93;6.33;;;;;;;6.93;100.00;100480.09;4843215;29;20394;-84
2023/01/13 10:49:37;;;;;;;22.33;5.47;;;;;;;6.87;100.00;100480.88;4845207;29;20441;-85
2023/01/13 10:52:24;;;;;;;22.83;4.83;;;;;;;6.93;100.00;100466.63;4862356;29;20040;-84
2023/01/13 10:54:53;;;;;;;24.43;5.37;;;;;;;6.90;100.00;100455.41;4845146;29;20034;-85
2023/01/13 10:57:21;;;;;;;22.13;5.57;;;;;;;6.99;100.00;100456.06;4830837;29;20440;-85
2023/01/13 10:59:47;;;;;;;20.17;4.63;;;;;;;7.00;100.00;100471.22;4862302;29;20113;-85
2023/01/13 11:02:28;;;;;;;24.90;5.93;;;;;;;7.06;100.00;100465.03;4836774;29;20089;-85
2023/01/13 11:04:53;;;;;;;24.77;5.83;;;;;;;7.06;100.00;100478.50;4859374;29;20044;-89
2023/01/13 11:07:34;;;;;;;24.10;5.87;;;;;;;7.10;100.00;100474.41;4845725;29;20041;-90
2023/01/13 11:10:43;;;;;;;20.73;5.47;;;;;;;7.17;100.00;100471.75;4856312;29;20499;-90
2023/01/13 11:13:26;;;;;;;28.90;5.63;;;;;;;7.10;100.00;100487.88;4809781;29;20117;-90
2023/01/13 11:16:11;;;;;;;23.80;5.07;;;;;;;7.12;100.00;100477.72;4805244;29;20123;-91
2023/01/13 11:19:00;;;;;;;22.93;5.00;;;;;;;7.08;100.00;100487.22;4848101;29;20052;-91
2023/01/13 11:21:37;;;;;;;22.43;5.00;;;;;;;7.05;100.00;100482.22;4859212;29;20041;-90
2023/01/13 11:24:11;;;;;;;27.60;5.97;;;;;;;7.15;100.00;100481.88;4839420;29;20037;-90
2023/01/13 11:26:50;;;;;;;24.95;5.10;;;;;;;7.23;100.00;100495.19;4845630;29;20439;-89
2023/01/13 11:29:42;;;;;;;23.20;5.17;;;;;;;7.37;100.00;100485.31;4845102;29;20052;-91
2023/01/13 11:32:13;;;;;;;22.20;5.00;;;;;;;7.38;100.00;100478.88;4850897;29;20025;-89
2023/01/13 11:34:40;;;;;;;24.23;5.37;;;;;;;7.35;100.00;100482.00;4870021;29;20044;-90
2023/01/13 11:37:33;;;;;;;22.00;5.60;;;;;;;7.37;100.00;100490.69;4845868;29;20026;-90
2023/01/13 11:40:26;;;;;;;21.20;4.77;;;;;;;7.39;100.00;100497.53;4851983;29;20037;-91
2023/01/13 11:43:06;;;;;;;23.70;5.67;;;;;;;7.53;100.00;100503.84;4860365;29;20037;-90
2023/01/13 11:45:45;;;;;;;24.37;5.60;;;;;;;7.70;100.00;100500.81;4844958;29;20428;-90
2023/01/13 11:48:19;;;;;;;23.40;5.00;;;;;;;7.75;100.00;100498.31;4845898;29;20398;-92
2023/01/13 11:51:10;;;;;;;22.90;5.30;;;;;;;7.79;100.00;100502.28;4851709;29;20036;-90
2023/01/13 11:54:13;;;;;;;20.40;4.67;;;;;;;7.77;100.00;100513.28;4843609;29;20029;-90
2023/01/13 11:57:09;;;;;;;22.80;4.60;;;;;;;7.77;100.00;100520.53;4846812;29;20897;-90
2023/01/13 11:59:56;;;;;;;21.30;4.83;;;;;;;7.81;100.00;100523.69;4832409;29;20048;-90
2023/01/13 12:03:00;;;;;;;19.77;4.47;;;;;;;7.83;100.00;100525.13;4834445;29;20533;-91
2023/01/13 12:05:39;;;;;;;20.13;4.57;;;;;;;7.73;100.00;100535.47;4784820;29;20045;-90
2023/01/13 12:08:17;;;;;;;21.77;4.93;;;;;;;7.70;100.00;100528.59;4804570;29;20984;-91
2023/01/13 12:10:54;;;;;;;21.60;5.07;;;;;;;7.71;100.00;100538.38;4840553;29;20049;-91
2023/01/13 12:13:30;;;;;;;20.17;4.90;;;;;;;7.69;99.68;100550.38;4865928;29;20025;-92
2023/01/13 12:16:05;;;;;;;19.80;4.73;;;;;;;7.72;99.69;100540.00;4862927;29;20063;-91
2023/01/13 12:18:46;;;;;;;19.70;4.57;;;;;;;7.71;100.00;100540.22;4866868;29;21793;-89
2023/01/13 12:21:26;;;;;;;19.70;4.80;;;;;;;7.70;99.49;100539.41;4855453;29;20085;-91
2023/01/13 12:24:12;;;;;;;18.50;4.30;;;;;;;7.70;99.71;100549.38;4852853;29;20029;-90
2023/01/13 12:26:43;;;;;;;21.03;5.13;;;;;;;7.68;100.00;100544.13;4859118;29;20029;-90